sensor_id;sensor_type;location;lat;lon;timestamp;P1;durP1;ratioP1;P2;durP2;ratioP2
11986;SDS011;6053;51.382;6.768;2022-12-18T00:00:26;4.63;;;4.40;;
11986;SDS011;6053;51.382;6.768;2022-12-18T00:02:55;3.85;;;3.67;;
11986;SDS011;6053;51.382;6.768;2022-12-18T00:05:24;4.60;;;4.37;;
11986;SDS011;6053;51.382;6.768;2022-12-18T00:07:53;4.65;;;4.45;;
11986;SDS011;6053;51.382;6.768;2022-12-18T00:10:21;4.85;;;4.65;;
11986;SDS011;6053;51.382;6.768;2022-12-18T00:12:51;5.03;;;4.72;;
11986;SDS011;6053;51.382;6.768;2022-12-18T00:15:20;4.57;;;4.38;;
11986;SDS011;6053;51.382;6.768;2022-12-18T00:17:49;4.75;;;4.45;;
11986;SDS011;6053;51.382;6.768;2022-12-18T00:20:18;4.15;;;4.05;;
11986;SDS011;6053;51.382;6.768;2022-12-18T00:22:51;4.22;;;4.03;;
11986;SDS011;6053;51.382;6.768;2022-12-18T00:25:20;4.40;;;4.20;;
11986;SDS011;6053;51.382;6.768;2022-12-18T00:27:52;4.60;;;4.40;;
11986;SDS011;6053;51.382;6.768;2022-12-18T00:30:20;4.75;;;4.55;;
11986;SDS011;6053;51.382;6.768;2022-12-18T00:32:49;4.50;;;4.30;;
11986;SDS011;6053;51.382;6.768;2022-12-18T00:35:18;4.40;;;4.20;;
11986;SDS011;6053;51.382;6.768;2022-12-18T00:37:47;4.68;;;4.47;;
11986;SDS011;6053;51.382;6.768;2022-12-18T00:40:16;5.00;;;4.70;;
11986;SDS011;6053;51.382;6.768;2022-12-18T00:42:45;4.70;;;4.40;;
11986;SDS011;6053;51.382;6.768;2022-12-18T00:45:23;4.70;;;4.43;;
11986;SDS011;6053;51.382;6.768;2022-12-18T00:47:53;4.25;;;4.05;;
11986;SDS011;6053;51.382;6.768;2022-12-18T00:50:25;4.35;;;4.15;;
11986;SDS011;6053;51.382;6.768;2022-12-18T00:52:54;4.10;;;3.90;;
11986;SDS011;6053;51.382;6.768;2022-12-18T00:55:23;4.60;;;4.30;;
11986;SDS011;6053;51.382;6.768;2022-12-18T00:57:52;5.00;;;4.60;;
11986;SDS011;6053;51.382;6.768;2022-12-18T01:00:21;5.25;;;4.95;;
11986;SDS011;6053;51.382;6.768;2022-12-18T01:02:54;3.28;;;3.17;;
11986;SDS011;6053;51.382;6.768;2022-12-18T01:05:22;4.70;;;4.50;;
11986;SDS011;6053;51.382;6.768;2022-12-18T01:07:51;4.93;;;4.72;;
11986;SDS011;6053;51.382;6.768;2022-12-18T01:10:20;4.32;;;4.13;;
11986;SDS011;6053;51.382;6.768;2022-12-18T01:12:49;3.88;;;3.67;;
11986;SDS011;6053;51.382;6.768;2022-12-18T01:15:18;4.30;;;4.10;;
11986;SDS011;6053;51.382;6.768;2022-12-18T01:17:49;3.97;;;3.88;;
11986;SDS011;6053;51.382;6.768;2022-12-18T01:20:20;3.92;;;3.83;;
11986;SDS011;6053;51.382;6.768;2022-12-18T01:22:49;4.18;;;4.07;;
11986;SDS011;6053;51.382;6.768;2022-12-18T01:25:18;4.68;;;4.47;;
11986;SDS011;6053;51.382;6.768;2022-12-18T01:27:47;4.20;;;4.00;;
11986;SDS011;6053;51.382;6.768;2022-12-18T01:30:15;4.65;;;4.38;;
11986;SDS011;6053;51.382;6.768;2022-12-18T01:32:44;4.72;;;4.53;;
11986;SDS011;6053;51.382;6.768;2022-12-18T01:35:15;4.28;;;4.07;;
11986;SDS011;6053;51.382;6.768;2022-12-18T01:37:44;3.75;;;3.65;;
11986;SDS011;6053;51.382;6.768;2022-12-18T01:40:13;4.40;;;4.10;;
11986;SDS011;6053;51.382;6.768;2022-12-18T01:42:42;4.60;;;4.40;;
11986;SDS011;6053;51.382;6.768;2022-12-18T01:45:22;4.35;;;4.15;;
11986;SDS011;6053;51.382;6.768;2022-12-18T01:47:53;4.63;;;4.33;;
11986;SDS011;6053;51.382;6.768;2022-12-18T01:50:27;4.90;;;4.70;;
11986;SDS011;6053;51.382;6.768;2022-12-18T01:53:01;3.72;;;3.63;;
11986;SDS011;6053;51.382;6.768;2022-12-18T01:55:35;3.77;;;3.67;;
11986;SDS011;6053;51.382;6.768;2022-12-18T01:58:09;4.63;;;4.43;;
11986;SDS011;6053;51.382;6.768;2022-12-18T02:00:38;4.45;;;4.25;;
11986;SDS011;6053;51.382;6.768;2022-12-18T02:03:07;3.97;;;3.80;;
11986;SDS011;6053;51.382;6.768;2022-12-18T02:05:39;3.60;;;3.50;;
11986;SDS011;6053;51.382;6.768;2022-12-18T02:08:13;4.03;;;3.83;;
11986;SDS011;6053;51.382;6.768;2022-12-18T02:10:48;4.30;;;4.10;;
11986;SDS011;6053;51.382;6.768;2022-12-18T02:13:25;4.25;;;4.05;;
11986;SDS011;6053;51.382;6.768;2022-12-18T02:16:04;5.13;;;4.80;;
11986;SDS011;6053;51.382;6.768;2022-12-18T02:18:41;4.03;;;3.92;;
11986;SDS011;6053;51.382;6.768;2022-12-18T02:21:16;4.07;;;3.88;;
11986;SDS011;6053;51.382;6.768;2022-12-18T02:23:56;3.53;;;3.42;;
11986;SDS011;6053;51.382;6.768;2022-12-18T02:26:42;4.70;;;4.50;;
11986;SDS011;6053;51.382;6.768;2022-12-18T02:29:16;4.20;;;4.00;;
11986;SDS011;6053;51.382;6.768;2022-12-18T02:31:53;4.22;;;4.03;;
11986;SDS011;6053;51.382;6.768;2022-12-18T02:34:26;4.38;;;4.18;;
11986;SDS011;6053;51.382;6.768;2022-12-18T02:36:59;4.55;;;4.45;;
11986;SDS011;6053;51.382;6.768;2022-12-18T02:39:32;4.35;;;4.15;;
11986;SDS011;6053;51.382;6.768;2022-12-18T02:42:05;4.97;;;4.70;;
11986;SDS011;6053;51.382;6.768;2022-12-18T02:44:34;3.83;;;3.72;;
11986;SDS011;6053;51.382;6.768;2022-12-18T02:47:09;4.85;;;4.55;;
11986;SDS011;6053;51.382;6.768;2022-12-18T02:49:44;3.95;;;3.80;;
11986;SDS011;6053;51.382;6.768;2022-12-18T02:52:23;4.40;;;4.20;;
11986;SDS011;6053;51.382;6.768;2022-12-18T02:55:00;3.72;;;3.60;;
11986;SDS011;6053;51.382;6.768;2022-12-18T02:57:42;4.78;;;4.57;;
11986;SDS011;6053;51.382;6.768;2022-12-18T03:00:18;5.45;;;5.07;;
11986;SDS011;6053;51.382;6.768;2022-12-18T03:02:51;4.18;;;3.97;;
11986;SDS011;6053;51.382;6.768;2022-12-18T03:05:27;4.68;;;4.47;;
11986;SDS011;6053;51.382;6.768;2022-12-18T03:08:02;4.30;;;4.10;;
11986;SDS011;6053;51.382;6.768;2022-12-18T03:10:36;4.07;;;3.97;;
11986;SDS011;6053;51.382;6.768;2022-12-18T03:13:12;5.10;;;4.80;;
11986;SDS011;6053;51.382;6.768;2022-12-18T03:15:46;4.47;;;4.28;;
11986;SDS011;6053;51.382;6.768;2022-12-18T03:18:19;4.13;;;4.03;;
11986;SDS011;6053;51.382;6.768;2022-12-18T03:20:51;4.43;;;4.20;;
11986;SDS011;6053;51.382;6.768;2022-12-18T03:23:24;5.80;;;5.40;;
11986;SDS011;6053;51.382;6.768;2022-12-18T03:25:57;5.38;;;5.07;;
11986;SDS011;6053;51.382;6.768;2022-12-18T03:28:36;4.53;;;4.22;;
11986;SDS011;6053;51.382;6.768;2022-12-18T03:31:10;3.80;;;3.70;;
11986;SDS011;6053;51.382;6.768;2022-12-18T03:33:41;5.28;;;4.97;;
11986;SDS011;6053;51.382;6.768;2022-12-18T03:36:14;4.43;;;4.22;;
11986;SDS011;6053;51.382;6.768;2022-12-18T03:38:43;5.32;;;5.03;;
11986;SDS011;6053;51.382;6.768;2022-12-18T03:41:15;4.72;;;4.43;;
11986;SDS011;6053;51.382;6.768;2022-12-18T03:43:50;4.18;;;3.97;;
11986;SDS011;6053;51.382;6.768;2022-12-18T03:46:26;4.43;;;4.22;;
11986;SDS011;6053;51.382;6.768;2022-12-18T03:49:02;5.17;;;4.83;;
11986;SDS011;6053;51.382;6.768;2022-12-18T03:51:38;4.57;;;4.38;;
11986;SDS011;6053;51.382;6.768;2022-12-18T03:54:11;5.40;;;5.10;;
11986;SDS011;6053;51.382;6.768;2022-12-18T03:56:43;4.75;;;4.55;;
11986;SDS011;6053;51.382;6.768;2022-12-18T03:59:17;4.05;;;3.95;;
11986;SDS011;6053;51.382;6.768;2022-12-18T04:01:49;3.90;;;3.70;;
11986;SDS011;6053;51.382;6.768;2022-12-18T04:04:22;4.28;;;4.18;;
11986;SDS011;6053;51.382;6.768;2022-12-18T04:06:52;3.72;;;3.63;;
11986;SDS011;6053;51.382;6.768;2022-12-18T04:09:23;3.72;;;3.63;;
11986;SDS011;6053;51.382;6.768;2022-12-18T04:11:52;3.83;;;3.72;;
11986;SDS011;6053;51.382;6.768;2022-12-18T04:14:22;4.43;;;4.22;;
11986;SDS011;6053;51.382;6.768;2022-12-18T04:16:52;4.18;;;4.07;;
11986;SDS011;6053;51.382;6.768;2022-12-18T04:19:21;3.63;;;3.53;;
11986;SDS011;6053;51.382;6.768;2022-12-18T04:21:50;3.72;;;3.63;;
11986;SDS011;6053;51.382;6.768;2022-12-18T04:24:19;4.03;;;3.92;;
11986;SDS011;6053;51.382;6.768;2022-12-18T04:26:47;3.42;;;3.33;;
11986;SDS011;6053;51.382;6.768;2022-12-18T04:29:16;3.25;;;3.15;;
11986;SDS011;6053;51.382;6.768;2022-12-18T04:31:46;3.42;;;3.33;;
11986;SDS011;6053;51.382;6.768;2022-12-18T04:34:15;3.65;;;3.55;;
11986;SDS011;6053;51.382;6.768;2022-12-18T04:36:44;3.75;;;3.65;;
11986;SDS011;6053;51.382;6.768;2022-12-18T04:39:13;4.47;;;4.28;;
11986;SDS011;6053;51.382;6.768;2022-12-18T04:41:42;3.97;;;3.88;;
11986;SDS011;6053;51.382;6.768;2022-12-18T04:44:11;3.47;;;3.38;;
11986;SDS011;6053;51.382;6.768;2022-12-18T04:46:40;3.83;;;3.72;;
11986;SDS011;6053;51.382;6.768;2022-12-18T04:49:10;3.40;;;3.30;;
11986;SDS011;6053;51.382;6.768;2022-12-18T04:51:39;4.97;;;4.78;;
11986;SDS011;6053;51.382;6.768;2022-12-18T04:54:08;3.83;;;3.72;;
11986;SDS011;6053;51.382;6.768;2022-12-18T04:56:37;4.03;;;3.83;;
11986;SDS011;6053;51.382;6.768;2022-12-18T04:59:07;4.20;;;4.10;;
11986;SDS011;6053;51.382;6.768;2022-12-18T05:01:36;3.35;;;3.25;;
11986;SDS011;6053;51.382;6.768;2022-12-18T05:04:05;3.65;;;3.55;;
11986;SDS011;6053;51.382;6.768;2022-12-18T05:06:35;4.25;;;4.05;;
11986;SDS011;6053;51.382;6.768;2022-12-18T05:09:04;4.22;;;4.03;;
11986;SDS011;6053;51.382;6.768;2022-12-18T05:11:34;3.75;;;3.65;;
11986;SDS011;6053;51.382;6.768;2022-12-18T05:14:03;3.60;;;3.50;;
11986;SDS011;6053;51.382;6.768;2022-12-18T05:16:32;3.78;;;3.67;;
11986;SDS011;6053;51.382;6.768;2022-12-18T05:19:01;4.22;;;4.13;;
11986;SDS011;6053;51.382;6.768;2022-12-18T05:21:29;3.42;;;3.22;;
11986;SDS011;6053;51.382;6.768;2022-12-18T05:24:03;3.75;;;3.65;;
11986;SDS011;6053;51.382;6.768;2022-12-18T05:26:33;3.78;;;3.65;;
11986;SDS011;6053;51.382;6.768;2022-12-18T05:29:02;4.13;;;4.03;;
11986;SDS011;6053;51.382;6.768;2022-12-18T05:31:31;3.63;;;3.53;;
11986;SDS011;6053;51.382;6.768;2022-12-18T05:34:05;3.55;;;3.45;;
11986;SDS011;6053;51.382;6.768;2022-12-18T05:36:34;3.83;;;3.72;;
11986;SDS011;6053;51.382;6.768;2022-12-18T05:39:04;3.80;;;3.70;;
11986;SDS011;6053;51.382;6.768;2022-12-18T05:41:33;3.75;;;3.65;;
11986;SDS011;6053;51.382;6.768;2022-12-18T05:44:02;3.83;;;3.72;;
11986;SDS011;6053;51.382;6.768;2022-12-18T05:46:31;4.18;;;4.07;;
11986;SDS011;6053;51.382;6.768;2022-12-18T05:49:00;3.93;;;3.83;;
11986;SDS011;6053;51.382;6.768;2022-12-18T05:51:29;3.95;;;3.65;;
11986;SDS011;6053;51.382;6.768;2022-12-18T05:53:58;3.88;;;3.78;;
11986;SDS011;6053;51.382;6.768;2022-12-18T05:56:28;3.80;;;3.70;;
11986;SDS011;6053;51.382;6.768;2022-12-18T05:58:57;4.15;;;4.05;;
11986;SDS011;6053;51.382;6.768;2022-12-18T06:01:26;3.35;;;3.25;;
11986;SDS011;6053;51.382;6.768;2022-12-18T06:03:56;4.00;;;3.90;;
11986;SDS011;6053;51.382;6.768;2022-12-18T06:06:26;3.72;;;3.63;;
11986;SDS011;6053;51.382;6.768;2022-12-18T06:08:57;3.50;;;3.40;;
11986;SDS011;6053;51.382;6.768;2022-12-18T06:11:31;3.83;;;3.73;;
11986;SDS011;6053;51.382;6.768;2022-12-18T06:14:00;4.10;;;4.00;;
11986;SDS011;6053;51.382;6.768;2022-12-18T06:16:29;3.90;;;3.80;;
11986;SDS011;6053;51.382;6.768;2022-12-18T06:18:59;3.95;;;3.85;;
11986;SDS011;6053;51.382;6.768;2022-12-18T06:21:29;4.00;;;3.90;;
11986;SDS011;6053;51.382;6.768;2022-12-18T06:23:59;3.75;;;3.65;;
11986;SDS011;6053;51.382;6.768;2022-12-18T06:26:30;3.47;;;3.38;;
11986;SDS011;6053;51.382;6.768;2022-12-18T06:28:59;3.20;;;3.10;;
11986;SDS011;6053;51.382;6.768;2022-12-18T06:31:27;3.80;;;3.70;;
11986;SDS011;6053;51.382;6.768;2022-12-18T06:33:56;3.95;;;3.85;;
11986;SDS011;6053;51.382;6.768;2022-12-18T06:36:26;3.67;;;3.58;;
11986;SDS011;6053;51.382;6.768;2022-12-18T06:38:55;4.13;;;4.03;;
11986;SDS011;6053;51.382;6.768;2022-12-18T06:41:24;3.80;;;3.70;;
11986;SDS011;6053;51.382;6.768;2022-12-18T06:43:55;4.00;;;3.90;;
11986;SDS011;6053;51.382;6.768;2022-12-18T06:46:25;4.07;;;3.97;;
11986;SDS011;6053;51.382;6.768;2022-12-18T06:48:54;4.30;;;4.20;;
11986;SDS011;6053;51.382;6.768;2022-12-18T06:51:23;3.70;;;3.60;;
11986;SDS011;6053;51.382;6.768;2022-12-18T06:53:52;3.75;;;3.58;;
11986;SDS011;6053;51.382;6.768;2022-12-18T06:56:21;3.80;;;3.70;;
11986;SDS011;6053;51.382;6.768;2022-12-18T06:58:49;3.30;;;3.20;;
11986;SDS011;6053;51.382;6.768;2022-12-18T07:01:20;4.28;;;4.18;;
11986;SDS011;6053;51.382;6.768;2022-12-18T07:03:51;3.65;;;3.55;;
11986;SDS011;6053;51.382;6.768;2022-12-18T07:06:21;4.40;;;4.20;;
11986;SDS011;6053;51.382;6.768;2022-12-18T07:08:51;4.15;;;4.05;;
11986;SDS011;6053;51.382;6.768;2022-12-18T07:11:24;4.10;;;4.00;;
11986;SDS011;6053;51.382;6.768;2022-12-18T07:13:52;3.75;;;3.65;;
11986;SDS011;6053;51.382;6.768;2022-12-18T07:16:23;4.00;;;3.90;;
11986;SDS011;6053;51.382;6.768;2022-12-18T07:18:52;4.15;;;4.05;;
11986;SDS011;6053;51.382;6.768;2022-12-18T07:21:23;4.00;;;3.80;;
11986;SDS011;6053;51.382;6.768;2022-12-18T07:23:52;4.43;;;4.32;;
11986;SDS011;6053;51.382;6.768;2022-12-18T07:26:21;3.25;;;3.15;;
11986;SDS011;6053;51.382;6.768;2022-12-18T07:28:50;3.88;;;3.78;;
11986;SDS011;6053;51.382;6.768;2022-12-18T07:31:25;4.22;;;4.10;;
11986;SDS011;6053;51.382;6.768;2022-12-18T07:33:55;4.07;;;3.97;;
11986;SDS011;6053;51.382;6.768;2022-12-18T07:36:24;3.78;;;3.67;;
11986;SDS011;6053;51.382;6.768;2022-12-18T07:38:53;4.20;;;4.10;;
11986;SDS011;6053;51.382;6.768;2022-12-18T07:41:23;4.53;;;4.32;;
11986;SDS011;6053;51.382;6.768;2022-12-18T07:43:52;4.38;;;4.18;;
11986;SDS011;6053;51.382;6.768;2022-12-18T07:46:21;5.13;;;4.93;;
11986;SDS011;6053;51.382;6.768;2022-12-18T07:48:52;3.43;;;3.33;;
11986;SDS011;6053;51.382;6.768;2022-12-18T07:51:21;3.85;;;3.75;;
11986;SDS011;6053;51.382;6.768;2022-12-18T07:53:50;4.90;;;4.65;;
11986;SDS011;6053;51.382;6.768;2022-12-18T07:56:20;5.18;;;4.88;;
11986;SDS011;6053;51.382;6.768;2022-12-18T07:58:55;4.10;;;4.00;;
11986;SDS011;6053;51.382;6.768;2022-12-18T08:01:24;5.25;;;4.95;;
11986;SDS011;6053;51.382;6.768;2022-12-18T08:03:56;4.63;;;4.43;;
11986;SDS011;6053;51.382;6.768;2022-12-18T08:06:25;5.82;;;5.47;;
11986;SDS011;6053;51.382;6.768;2022-12-18T08:08:55;4.95;;;4.65;;
11986;SDS011;6053;51.382;6.768;2022-12-18T08:11:24;4.57;;;4.38;;
11986;SDS011;6053;51.382;6.768;2022-12-18T08:13:55;4.47;;;4.28;;
11986;SDS011;6053;51.382;6.768;2022-12-18T08:16:25;4.13;;;3.92;;
11986;SDS011;6053;51.382;6.768;2022-12-18T08:18:58;5.10;;;4.80;;
11986;SDS011;6053;51.382;6.768;2022-12-18T08:21:27;4.60;;;4.40;;
11986;SDS011;6053;51.382;6.768;2022-12-18T08:24:00;5.40;;;5.05;;
11986;SDS011;6053;51.382;6.768;2022-12-18T08:26:30;5.50;;;5.20;;
11986;SDS011;6053;51.382;6.768;2022-12-18T08:28:59;4.80;;;4.60;;
11986;SDS011;6053;51.382;6.768;2022-12-18T08:31:29;4.73;;;4.43;;
11986;SDS011;6053;51.382;6.768;2022-12-18T08:34:03;4.53;;;4.30;;
11986;SDS011;6053;51.382;6.768;2022-12-18T08:36:32;5.72;;;5.25;;
11986;SDS011;6053;51.382;6.768;2022-12-18T08:39:01;5.03;;;4.78;;
11986;SDS011;6053;51.382;6.768;2022-12-18T08:41:30;5.13;;;4.82;;
11986;SDS011;6053;51.382;6.768;2022-12-18T08:43:59;4.93;;;4.63;;
11986;SDS011;6053;51.382;6.768;2022-12-18T08:46:46;5.60;;;5.10;;
11986;SDS011;6053;51.382;6.768;2022-12-18T08:49:16;5.38;;;5.07;;
11986;SDS011;6053;51.382;6.768;2022-12-18T08:51:45;5.85;;;5.50;;
11986;SDS011;6053;51.382;6.768;2022-12-18T08:54:14;5.78;;;5.28;;
11986;SDS011;6053;51.382;6.768;2022-12-18T08:56:43;4.03;;;3.83;;
11986;SDS011;6053;51.382;6.768;2022-12-18T08:59:11;6.23;;;5.83;;
11986;SDS011;6053;51.382;6.768;2022-12-18T09:01:46;5.70;;;5.23;;
11986;SDS011;6053;51.382;6.768;2022-12-18T09:04:17;5.90;;;5.50;;
11986;SDS011;6053;51.382;6.768;2022-12-18T09:06:45;4.50;;;4.30;;
11986;SDS011;6053;51.382;6.768;2022-12-18T09:09:15;5.43;;;5.10;;
11986;SDS011;6053;51.382;6.768;2022-12-18T09:11:44;5.25;;;4.93;;
11986;SDS011;6053;51.382;6.768;2022-12-18T09:14:13;5.60;;;5.20;;
11986;SDS011;6053;51.382;6.768;2022-12-18T09:16:42;5.25;;;4.88;;
11986;SDS011;6053;51.382;6.768;2022-12-18T09:19:11;5.07;;;4.78;;
11986;SDS011;6053;51.382;6.768;2022-12-18T09:21:42;5.68;;;5.22;;
11986;SDS011;6053;51.382;6.768;2022-12-18T09:24:14;5.45;;;5.15;;
11986;SDS011;6053;51.382;6.768;2022-12-18T09:26:43;4.90;;;4.63;;
11986;SDS011;6053;51.382;6.768;2022-12-18T09:29:13;5.47;;;5.18;;
11986;SDS011;6053;51.382;6.768;2022-12-18T09:31:44;5.35;;;5.05;;
11986;SDS011;6053;51.382;6.768;2022-12-18T09:34:13;5.88;;;5.47;;
11986;SDS011;6053;51.382;6.768;2022-12-18T09:36:46;5.07;;;4.78;;
11986;SDS011;6053;51.382;6.768;2022-12-18T09:39:15;6.07;;;5.63;;
11986;SDS011;6053;51.382;6.768;2022-12-18T09:41:50;5.88;;;5.47;;
11986;SDS011;6053;51.382;6.768;2022-12-18T09:44:23;5.63;;;5.32;;
11986;SDS011;6053;51.382;6.768;2022-12-18T09:46:57;5.10;;;4.80;;
11986;SDS011;6053;51.382;6.768;2022-12-18T09:49:33;5.37;;;5.07;;
11986;SDS011;6053;51.382;6.768;2022-12-18T09:52:11;4.47;;;4.20;;
11986;SDS011;6053;51.382;6.768;2022-12-18T09:54:47;5.85;;;5.53;;
11986;SDS011;6053;51.382;6.768;2022-12-18T09:57:20;6.10;;;5.75;;
11986;SDS011;6053;51.382;6.768;2022-12-18T09:59:53;5.82;;;5.53;;
11986;SDS011;6053;51.382;6.768;2022-12-18T10:02:26;5.03;;;4.73;;
11986;SDS011;6053;51.382;6.768;2022-12-18T10:05:03;4.80;;;4.60;;
11986;SDS011;6053;51.382;6.768;2022-12-18T10:07:39;5.30;;;4.90;;
11986;SDS011;6053;51.382;6.768;2022-12-18T10:10:27;6.40;;;6.05;;
11986;SDS011;6053;51.382;6.768;2022-12-18T10:13:10;5.10;;;4.80;;
11986;SDS011;6053;51.382;6.768;2022-12-18T10:15:52;5.32;;;5.03;;
11986;SDS011;6053;51.382;6.768;2022-12-18T10:18:44;4.72;;;4.53;;
11986;SDS011;6053;51.382;6.768;2022-12-18T10:21:26;5.72;;;5.40;;
11986;SDS011;6053;51.382;6.768;2022-12-18T10:24:05;5.43;;;5.13;;
11986;SDS011;6053;51.382;6.768;2022-12-18T10:26:42;5.22;;;4.93;;
11986;SDS011;6053;51.382;6.768;2022-12-18T10:29:13;5.78;;;5.47;;
11986;SDS011;6053;51.382;6.768;2022-12-18T10:31:43;5.80;;;5.40;;
11986;SDS011;6053;51.382;6.768;2022-12-18T10:34:12;4.65;;;4.45;;
11986;SDS011;6053;51.382;6.768;2022-12-18T10:36:42;5.35;;;5.05;;
11986;SDS011;6053;51.382;6.768;2022-12-18T10:39:16;5.88;;;5.47;;
11986;SDS011;6053;51.382;6.768;2022-12-18T10:41:46;5.55;;;5.18;;
11986;SDS011;6053;51.382;6.768;2022-12-18T10:44:17;3.58;;;3.47;;
11986;SDS011;6053;51.382;6.768;2022-12-18T10:46:47;5.43;;;5.13;;
11986;SDS011;6053;51.382;6.768;2022-12-18T10:49:20;4.93;;;4.63;;
11986;SDS011;6053;51.382;6.768;2022-12-18T10:51:51;4.73;;;4.43;;
11986;SDS011;6053;51.382;6.768;2022-12-18T10:54:36;5.70;;;5.30;;
11986;SDS011;6053;51.382;6.768;2022-12-18T10:57:29;7.63;;;6.87;;
11986;SDS011;6053;51.382;6.768;2022-12-18T11:00:18;8.50;;;7.60;;
11986;SDS011;6053;51.382;6.768;2022-12-18T11:02:51;6.40;;;6.00;;
11986;SDS011;6053;51.382;6.768;2022-12-18T11:05:25;5.13;;;4.82;;
11986;SDS011;6053;51.382;6.768;2022-12-18T11:07:55;4.57;;;4.30;;
11986;SDS011;6053;51.382;6.768;2022-12-18T11:10:28;5.50;;;5.10;;
11986;SDS011;6053;51.382;6.768;2022-12-18T11:13:10;5.70;;;5.30;;
11986;SDS011;6053;51.382;6.768;2022-12-18T11:15:45;5.32;;;5.03;;
11986;SDS011;6053;51.382;6.768;2022-12-18T11:18:19;5.63;;;5.13;;
11986;SDS011;6053;51.382;6.768;2022-12-18T11:20:53;5.30;;;4.97;;
11986;SDS011;6053;51.382;6.768;2022-12-18T11:23:24;5.30;;;5.00;;
11986;SDS011;6053;51.382;6.768;2022-12-18T11:26:00;4.97;;;4.68;;
11986;SDS011;6053;51.382;6.768;2022-12-18T11:28:36;5.25;;;4.90;;
11986;SDS011;6053;51.382;6.768;2022-12-18T11:34:00;5.78;;;5.32;;
11986;SDS011;6053;51.382;6.768;2022-12-18T11:36:54;4.97;;;4.68;;
11986;SDS011;6053;51.382;6.768;2022-12-18T11:39:31;4.70;;;4.30;;
11986;SDS011;6053;51.382;6.768;2022-12-18T11:42:12;5.00;;;4.70;;
11986;SDS011;6053;51.382;6.768;2022-12-18T11:44:46;5.10;;;4.80;;
11986;SDS011;6053;51.382;6.768;2022-12-18T11:47:21;5.88;;;5.47;;
11986;SDS011;6053;51.382;6.768;2022-12-18T11:49:55;5.15;;;4.85;;
11986;SDS011;6053;51.382;6.768;2022-12-18T11:52:28;4.57;;;4.22;;
11986;SDS011;6053;51.382;6.768;2022-12-18T11:55:07;7.22;;;5.50;;
11986;SDS011;6053;51.382;6.768;2022-12-18T11:57:45;4.70;;;4.40;;
11986;SDS011;6053;51.382;6.768;2022-12-18T12:00:22;5.72;;;5.32;;
11986;SDS011;6053;51.382;6.768;2022-12-18T12:03:08;5.93;;;5.50;;
11986;SDS011;6053;51.382;6.768;2022-12-18T12:05:57;5.93;;;5.43;;
11986;SDS011;6053;51.382;6.768;2022-12-18T12:08:45;5.18;;;4.78;;
11986;SDS011;6053;51.382;6.768;2022-12-18T12:11:32;5.35;;;5.05;;
11986;SDS011;6053;51.382;6.768;2022-12-18T12:14:13;6.00;;;5.60;;
11986;SDS011;6053;51.382;6.768;2022-12-18T12:16:56;5.10;;;4.70;;
11986;SDS011;6053;51.382;6.768;2022-12-18T12:19:36;5.70;;;5.30;;
11986;SDS011;6053;51.382;6.768;2022-12-18T12:22:17;5.90;;;5.40;;
11986;SDS011;6053;51.382;6.768;2022-12-18T12:24:55;5.18;;;4.85;;
11986;SDS011;6053;51.382;6.768;2022-12-18T12:27:36;5.85;;;5.45;;
11986;SDS011;6053;51.382;6.768;2022-12-18T12:30:16;5.38;;;5.03;;
11986;SDS011;6053;51.382;6.768;2022-12-18T12:32:59;5.97;;;5.47;;
11986;SDS011;6053;51.382;6.768;2022-12-18T12:35:42;5.53;;;5.20;;
11986;SDS011;6053;51.382;6.768;2022-12-18T12:38:19;5.90;;;5.30;;
11986;SDS011;6053;51.382;6.768;2022-12-18T12:40:53;5.20;;;4.80;;
11986;SDS011;6053;51.382;6.768;2022-12-18T12:43:32;6.03;;;5.53;;
11986;SDS011;6053;51.382;6.768;2022-12-18T12:46:15;5.50;;;5.00;;
11986;SDS011;6053;51.382;6.768;2022-12-18T12:48:50;6.38;;;5.88;;
11986;SDS011;6053;51.382;6.768;2022-12-18T12:51:23;6.38;;;5.78;;
11986;SDS011;6053;51.382;6.768;2022-12-18T12:53:56;6.47;;;5.95;;
11986;SDS011;6053;51.382;6.768;2022-12-18T12:56:28;6.93;;;6.20;;
11986;SDS011;6053;51.382;6.768;2022-12-18T12:59:19;5.95;;;5.50;;
11986;SDS011;6053;51.382;6.768;2022-12-18T13:02:02;5.93;;;5.45;;
11986;SDS011;6053;51.382;6.768;2022-12-18T13:04:40;6.05;;;5.65;;
11986;SDS011;6053;51.382;6.768;2022-12-18T13:07:15;6.07;;;5.57;;
11986;SDS011;6053;51.382;6.768;2022-12-18T13:10:12;5.80;;;5.20;;
11986;SDS011;6053;51.382;6.768;2022-12-18T13:12:53;6.35;;;5.82;;
11986;SDS011;6053;51.382;6.768;2022-12-18T13:15:33;6.65;;;6.05;;
11986;SDS011;6053;51.382;6.768;2022-12-18T13:18:24;6.15;;;5.60;;
11986;SDS011;6053;51.382;6.768;2022-12-18T13:21:02;6.37;;;5.80;;
11986;SDS011;6053;51.382;6.768;2022-12-18T13:23:44;5.43;;;4.93;;
11986;SDS011;6053;51.382;6.768;2022-12-18T13:26:30;5.95;;;5.45;;
11986;SDS011;6053;51.382;6.768;2022-12-18T13:29:01;5.13;;;4.72;;
11986;SDS011;6053;51.382;6.768;2022-12-18T13:34:29;6.40;;;5.80;;
11986;SDS011;6053;51.382;6.768;2022-12-18T13:43:27;5.50;;;5.10;;
11986;SDS011;6053;51.382;6.768;2022-12-18T13:46:00;5.70;;;5.20;;
11986;SDS011;6053;51.382;6.768;2022-12-18T13:48:32;6.57;;;5.97;;
11986;SDS011;6053;51.382;6.768;2022-12-18T13:51:07;6.75;;;6.03;;
11986;SDS011;6053;51.382;6.768;2022-12-18T13:53:42;8.95;;;6.13;;
11986;SDS011;6053;51.382;6.768;2022-12-18T13:56:17;6.87;;;6.37;;
11986;SDS011;6053;51.382;6.768;2022-12-18T14:01:42;6.70;;;5.60;;
11986;SDS011;6053;51.382;6.768;2022-12-18T14:04:19;7.27;;;6.13;;
11986;SDS011;6053;51.382;6.768;2022-12-18T14:06:57;6.03;;;5.45;;
11986;SDS011;6053;51.382;6.768;2022-12-18T14:09:34;6.20;;;5.60;;
11986;SDS011;6053;51.382;6.768;2022-12-18T14:12:06;6.93;;;6.20;;
11986;SDS011;6053;51.382;6.768;2022-12-18T14:14:59;5.93;;;5.33;;
11986;SDS011;6053;51.382;6.768;2022-12-18T14:17:29;6.03;;;5.43;;
11986;SDS011;6053;51.382;6.768;2022-12-18T14:20:00;5.70;;;5.10;;
11986;SDS011;6053;51.382;6.768;2022-12-18T14:22:31;6.57;;;6.05;;
11986;SDS011;6053;51.382;6.768;2022-12-18T14:27:52;5.90;;;5.40;;
11986;SDS011;6053;51.382;6.768;2022-12-18T14:30:30;6.82;;;5.60;;
11986;SDS011;6053;51.382;6.768;2022-12-18T14:33:03;7.27;;;6.57;;
11986;SDS011;6053;51.382;6.768;2022-12-18T14:35:34;7.15;;;6.35;;
11986;SDS011;6053;51.382;6.768;2022-12-18T14:38:11;7.40;;;6.43;;
11986;SDS011;6053;51.382;6.768;2022-12-18T14:40:54;7.00;;;6.30;;
11986;SDS011;6053;51.382;6.768;2022-12-18T14:43:25;6.53;;;5.20;;
11986;SDS011;6053;51.382;6.768;2022-12-18T14:45:55;6.30;;;5.80;;
11986;SDS011;6053;51.382;6.768;2022-12-18T14:48:33;7.03;;;6.45;;
11986;SDS011;6053;51.382;6.768;2022-12-18T14:51:05;6.13;;;5.63;;
11986;SDS011;6053;51.382;6.768;2022-12-18T14:53:44;6.55;;;5.90;;
11986;SDS011;6053;51.382;6.768;2022-12-18T14:56:21;7.53;;;6.65;;
11986;SDS011;6053;51.382;6.768;2022-12-18T14:58:53;7.03;;;6.43;;
11986;SDS011;6053;51.382;6.768;2022-12-18T15:01:27;5.35;;;4.88;;
11986;SDS011;6053;51.382;6.768;2022-12-18T15:03:58;5.93;;;5.10;;
11986;SDS011;6053;51.382;6.768;2022-12-18T15:06:30;8.05;;;5.90;;
11986;SDS011;6053;51.382;6.768;2022-12-18T15:09:21;7.47;;;6.77;;
11986;SDS011;6053;51.382;6.768;2022-12-18T15:11:55;8.73;;;6.43;;
11986;SDS011;6053;51.382;6.768;2022-12-18T15:14:34;7.72;;;6.28;;
11986;SDS011;6053;51.382;6.768;2022-12-18T15:17:14;6.22;;;5.63;;
11986;SDS011;6053;51.382;6.768;2022-12-18T15:19:45;7.57;;;6.20;;
11986;SDS011;6053;51.382;6.768;2022-12-18T15:22:20;7.15;;;6.53;;
11986;SDS011;6053;51.382;6.768;2022-12-18T15:24:54;7.43;;;6.72;;
11986;SDS011;6053;51.382;6.768;2022-12-18T15:27:25;7.88;;;7.07;;
11986;SDS011;6053;51.382;6.768;2022-12-18T15:32:45;6.18;;;5.68;;
11986;SDS011;6053;51.382;6.768;2022-12-18T15:35:17;7.83;;;6.03;;
11986;SDS011;6053;51.382;6.768;2022-12-18T15:37:48;7.45;;;6.70;;
11986;SDS011;6053;51.382;6.768;2022-12-18T15:40:20;7.13;;;6.45;;
11986;SDS011;6053;51.382;6.768;2022-12-18T15:42:51;8.10;;;7.13;;
11986;SDS011;6053;51.382;6.768;2022-12-18T15:45:39;5.07;;;4.67;;
11986;SDS011;6053;51.382;6.768;2022-12-18T15:48:15;6.95;;;6.35;;
11986;SDS011;6053;51.382;6.768;2022-12-18T15:50:49;9.20;;;7.47;;
11986;SDS011;6053;51.382;6.768;2022-12-18T15:53:22;8.30;;;7.50;;
11986;SDS011;6053;51.382;6.768;2022-12-18T15:55:53;7.10;;;6.43;;